sensor_id;sensor_type;location;lat;lon;timestamp;P1;P2;P0
77365;PMS5003;66430;50.182;11.704;2024-03-02T00:00:08;27;21;
77365;PMS5003;66430;50.182;11.704;2024-03-02T00:02:34;29;25;
77365;PMS5003;66430;50.182;11.704;2024-03-02T00:05:00;30;27;
77365;PMS5003;66430;50.182;11.704;2024-03-02T00:07:23;26;25;
77365;PMS5003;66430;50.182;11.704;2024-03-02T00:09:51;32;28;
77365;PMS5003;66430;50.182;11.704;2024-03-02T00:12:15;34;29;
77365;PMS5003;66430;50.182;11.704;2024-03-02T00:14:39;27;26;
77365;PMS5003;66430;50.182;11.704;2024-03-02T00:17:05;26;22;
77365;PMS5003;66430;50.182;11.704;2024-03-02T00:19:30;29;28;
77365;PMS5003;66430;50.182;11.704;2024-03-02T00:21:55;34;25;
77365;PMS5003;66430;50.182;11.704;2024-03-02T00:24:21;26;23;
77365;PMS5003;66430;50.182;11.704;2024-03-02T00:26:46;31;26;
77365;PMS5003;66430;50.182;11.704;2024-03-02T00:29:12;33;27;
77365;PMS5003;66430;50.182;11.704;2024-03-02T00:31:37;38;31;
77365;PMS5003;66430;50.182;11.704;2024-03-02T00:34:02;37;36;
77365;PMS5003;66430;50.182;11.704;2024-03-02T00:36:28;32;30;
77365;PMS5003;66430;50.182;11.704;2024-03-02T00:38:54;31;27;
77365;PMS5003;66430;50.182;11.704;2024-03-02T00:41:20;42;35;
77365;PMS5003;66430;50.182;11.704;2024-03-02T00:43:45;27;27;
77365;PMS5003;66430;50.182;11.704;2024-03-02T00:46:11;37;34;
77365;PMS5003;66430;50.182;11.704;2024-03-02T00:48:37;39;35;
77365;PMS5003;66430;50.182;11.704;2024-03-02T00:51:01;39;36;
77365;PMS5003;66430;50.182;11.704;2024-03-02T00:53:26;43;39;
77365;PMS5003;66430;50.182;11.704;2024-03-02T00:55:52;40;35;
77365;PMS5003;66430;50.182;11.704;2024-03-02T00:58:17;32;30;
77365;PMS5003;66430;50.182;11.704;2024-03-02T01:00:43;32;26;
77365;PMS5003;66430;50.182;11.704;2024-03-02T01:03:08;30;27;
77365;PMS5003;66430;50.182;11.704;2024-03-02T01:05:33;37;34;
77365;PMS5003;66430;50.182;11.704;2024-03-02T01:07:59;37;35;
77365;PMS5003;66430;50.182;11.704;2024-03-02T01:10:25;35;30;
77365;PMS5003;66430;50.182;11.704;2024-03-02T01:12:50;42;38;
77365;PMS5003;66430;50.182;11.704;2024-03-02T01:15:16;45;41;
77365;PMS5003;66430;50.182;11.704;2024-03-02T01:17:41;43;39;
77365;PMS5003;66430;50.182;11.704;2024-03-02T01:20:08;32;30;
77365;PMS5003;66430;50.182;11.704;2024-03-02T01:22:32;43;36;
77365;PMS5003;66430;50.182;11.704;2024-03-02T01:24:58;37;36;
77365;PMS5003;66430;50.182;11.704;2024-03-02T01:27:23;40;36;
77365;PMS5003;66430;50.182;11.704;2024-03-02T01:29:48;41;36;
77365;PMS5003;66430;50.182;11.704;2024-03-02T01:32:13;52;38;
77365;PMS5003;66430;50.182;11.704;2024-03-02T01:34:39;40;34;
77365;PMS5003;66430;50.182;11.704;2024-03-02T01:37:05;35;31;
77365;PMS5003;66430;50.182;11.704;2024-03-02T01:39:30;36;32;
77365;PMS5003;66430;50.182;11.704;2024-03-02T01:41:55;38;30;
77365;PMS5003;66430;50.182;11.704;2024-03-02T01:44:20;42;39;
77365;PMS5003;66430;50.182;11.704;2024-03-02T01:46:46;33;31;
77365;PMS5003;66430;50.182;11.704;2024-03-02T01:49:11;45;37;
77365;PMS5003;66430;50.182;11.704;2024-03-02T01:51:36;36;32;
77365;PMS5003;66430;50.182;11.704;2024-03-02T01:54:02;36;33;
77365;PMS5003;66430;50.182;11.704;2024-03-02T01:56:27;37;34;
77365;PMS5003;66430;50.182;11.704;2024-03-02T01:58:53;38;34;
77365;PMS5003;66430;50.182;11.704;2024-03-02T02:01:18;39;36;
77365;PMS5003;66430;50.182;11.704;2024-03-02T02:03:44;45;40;
77365;PMS5003;66430;50.182;11.704;2024-03-02T02:06:10;34;28;
77365;PMS5003;66430;50.182;11.704;2024-03-02T02:08:36;37;30;
77365;PMS5003;66430;50.182;11.704;2024-03-02T02:11:01;28;25;
77365;PMS5003;66430;50.182;11.704;2024-03-02T02:13:26;37;33;
77365;PMS5003;66430;50.182;11.704;2024-03-02T02:15:51;38;34;
77365;PMS5003;66430;50.182;11.704;2024-03-02T02:18:16;27;23;
77365;PMS5003;66430;50.182;11.704;2024-03-02T02:20:42;32;26;
77365;PMS5003;66430;50.182;11.704;2024-03-02T02:23:08;38;36;
77365;PMS5003;66430;50.182;11.704;2024-03-02T02:25:33;28;23;
77365;PMS5003;66430;50.182;11.704;2024-03-02T02:27:59;28;24;
77365;PMS5003;66430;50.182;11.704;2024-03-02T02:30:25;29;22;
77365;PMS5003;66430;50.182;11.704;2024-03-02T02:32:50;32;29;
77365;PMS5003;66430;50.182;11.704;2024-03-02T02:35:15;31;25;
77365;PMS5003;66430;50.182;11.704;2024-03-02T02:37:40;29;26;
77365;PMS5003;66430;50.182;11.704;2024-03-02T02:40:06;28;26;
77365;PMS5003;66430;50.182;11.704;2024-03-02T02:42:31;33;28;
77365;PMS5003;66430;50.182;11.704;2024-03-02T02:44:57;30;28;
77365;PMS5003;66430;50.182;11.704;2024-03-02T02:47:22;23;23;
77365;PMS5003;66430;50.182;11.704;2024-03-02T02:49:48;31;25;
77365;PMS5003;66430;50.182;11.704;2024-03-02T02:52:13;36;34;
77365;PMS5003;66430;50.182;11.704;2024-03-02T02:54:38;28;27;
77365;PMS5003;66430;50.182;11.704;2024-03-02T02:57:03;32;25;
77365;PMS5003;66430;50.182;11.704;2024-03-02T02:59:30;34;32;
77365;PMS5003;66430;50.182;11.704;2024-03-02T03:01:54;36;31;
77365;PMS5003;66430;50.182;11.704;2024-03-02T03:04:20;39;35;
77365;PMS5003;66430;50.182;11.704;2024-03-02T03:06:45;34;30;
77365;PMS5003;66430;50.182;11.704;2024-03-02T03:09:11;38;27;
77365;PMS5003;66430;50.182;11.704;2024-03-02T03:11:36;38;34;
77365;PMS5003;66430;50.182;11.704;2024-03-02T03:14:01;42;36;
77365;PMS5003;66430;50.182;11.704;2024-03-02T03:16:26;43;39;
77365;PMS5003;66430;50.182;11.704;2024-03-02T03:18:52;34;33;
77365;PMS5003;66430;50.182;11.704;2024-03-02T03:21:17;51;42;
77365;PMS5003;66430;50.182;11.704;2024-03-02T03:23:43;39;37;
77365;PMS5003;66430;50.182;11.704;2024-03-02T03:26:09;49;43;
77365;PMS5003;66430;50.182;11.704;2024-03-02T03:28:34;41;39;
77365;PMS5003;66430;50.182;11.704;2024-03-02T03:31:00;52;43;
77365;PMS5003;66430;50.182;11.704;2024-03-02T03:33:24;52;46;
77365;PMS5003;66430;50.182;11.704;2024-03-02T03:35:50;50;46;
77365;PMS5003;66430;50.182;11.704;2024-03-02T03:38:15;53;50;
77365;PMS5003;66430;50.182;11.704;2024-03-02T03:40:40;52;41;
77365;PMS5003;66430;50.182;11.704;2024-03-02T03:43:06;58;47;
77365;PMS5003;66430;50.182;11.704;2024-03-02T03:45:32;49;46;
77365;PMS5003;66430;50.182;11.704;2024-03-02T03:47:57;58;45;
77365;PMS5003;66430;50.182;11.704;2024-03-02T03:50:23;61;52;
77365;PMS5003;66430;50.182;11.704;2024-03-02T03:52:48;59;52;
77365;PMS5003;66430;50.182;11.704;2024-03-02T03:55:15;55;50;
77365;PMS5003;66430;50.182;11.704;2024-03-02T03:57:39;61;56;
77365;PMS5003;66430;50.182;11.704;2024-03-02T04:00:07;61;49;
77365;PMS5003;66430;50.182;11.704;2024-03-02T04:02:31;55;52;
77365;PMS5003;66430;50.182;11.704;2024-03-02T04:04:56;57;51;
77365;PMS5003;66430;50.182;11.704;2024-03-02T04:07:21;61;57;
77365;PMS5003;66430;50.182;11.704;2024-03-02T04:09:47;69;64;
77365;PMS5003;66430;50.182;11.704;2024-03-02T04:12:13;60;54;
77365;PMS5003;66430;50.182;11.704;2024-03-02T04:14:39;68;58;
77365;PMS5003;66430;50.182;11.704;2024-03-02T04:17:04;65;54;
77365;PMS5003;66430;50.182;11.704;2024-03-02T04:19:30;61;58;
77365;PMS5003;66430;50.182;11.704;2024-03-02T04:21:55;58;53;
77365;PMS5003;66430;50.182;11.704;2024-03-02T04:24:20;59;53;
77365;PMS5003;66430;50.182;11.704;2024-03-02T04:26:46;57;49;
77365;PMS5003;66430;50.182;11.704;2024-03-02T04:29:12;65;57;
77365;PMS5003;66430;50.182;11.704;2024-03-02T04:31:37;60;55;
77365;PMS5003;66430;50.182;11.704;2024-03-02T04:34:02;60;50;
77365;PMS5003;66430;50.182;11.704;2024-03-02T04:36:28;56;52;
77365;PMS5003;66430;50.182;11.704;2024-03-02T04:38:54;63;53;
77365;PMS5003;66430;50.182;11.704;2024-03-02T04:41:19;65;54;
77365;PMS5003;66430;50.182;11.704;2024-03-02T04:43:45;65;53;
77365;PMS5003;66430;50.182;11.704;2024-03-02T04:46:17;58;48;
77365;PMS5003;66430;50.182;11.704;2024-03-02T04:48:36;60;50;
77365;PMS5003;66430;50.182;11.704;2024-03-02T04:51:06;63;57;
77365;PMS5003;66430;50.182;11.704;2024-03-02T04:53:27;67;62;
77365;PMS5003;66430;50.182;11.704;2024-03-02T04:55:53;68;61;
77365;PMS5003;66430;50.182;11.704;2024-03-02T04:58:18;71;58;
77365;PMS5003;66430;50.182;11.704;2024-03-02T05:00:43;73;62;
77365;PMS5003;66430;50.182;11.704;2024-03-02T05:03:09;62;52;
77365;PMS5003;66430;50.182;11.704;2024-03-02T05:05:34;66;59;
77365;PMS5003;66430;50.182;11.704;2024-03-02T05:07:59;58;54;
77365;PMS5003;66430;50.182;11.704;2024-03-02T05:10:25;68;55;
77365;PMS5003;66430;50.182;11.704;2024-03-02T05:12:51;72;63;
77365;PMS5003;66430;50.182;11.704;2024-03-02T05:15:16;64;56;
77365;PMS5003;66430;50.182;11.704;2024-03-02T05:17:41;67;54;
77365;PMS5003;66430;50.182;11.704;2024-03-02T05:20:07;64;57;
77365;PMS5003;66430;50.182;11.704;2024-03-02T05:22:33;58;51;
77365;PMS5003;66430;50.182;11.704;2024-03-02T05:24:57;55;52;
77365;PMS5003;66430;50.182;11.704;2024-03-02T05:27:23;58;50;
77365;PMS5003;66430;50.182;11.704;2024-03-02T05:29:54;60;51;
77365;PMS5003;66430;50.182;11.704;2024-03-02T05:32:15;64;56;
77365;PMS5003;66430;50.182;11.704;2024-03-02T05:34:40;56;50;
77365;PMS5003;66430;50.182;11.704;2024-03-02T05:37:06;62;55;
77365;PMS5003;66430;50.182;11.704;2024-03-02T05:39:32;58;53;
77365;PMS5003;66430;50.182;11.704;2024-03-02T05:41:57;62;55;
77365;PMS5003;66430;50.182;11.704;2024-03-02T05:44:22;56;52;
77365;PMS5003;66430;50.182;11.704;2024-03-02T05:46:48;66;52;
77365;PMS5003;66430;50.182;11.704;2024-03-02T05:49:13;53;45;
77365;PMS5003;66430;50.182;11.704;2024-03-02T05:51:38;59;52;
77365;PMS5003;66430;50.182;11.704;2024-03-02T05:54:05;67;53;
77365;PMS5003;66430;50.182;11.704;2024-03-02T05:56:29;58;48;
77365;PMS5003;66430;50.182;11.704;2024-03-02T05:58:55;56;48;
77365;PMS5003;66430;50.182;11.704;2024-03-02T06:03:48;45;41;
77365;PMS5003;66430;50.182;11.704;2024-03-02T06:06:12;43;38;
77365;PMS5003;66430;50.182;11.704;2024-03-02T06:08:38;41;37;
77365;PMS5003;66430;50.182;11.704;2024-03-02T06:11:04;49;43;
77365;PMS5003;66430;50.182;11.704;2024-03-02T06:13:30;41;41;
77365;PMS5003;66430;50.182;11.704;2024-03-02T06:15:55;41;35;
77365;PMS5003;66430;50.182;11.704;2024-03-02T06:18:20;45;40;
77365;PMS5003;66430;50.182;11.704;2024-03-02T06:20:45;38;35;
77365;PMS5003;66430;50.182;11.704;2024-03-02T06:23:11;51;44;
77365;PMS5003;66430;50.182;11.704;2024-03-02T06:25:37;43;39;
77365;PMS5003;66430;50.182;11.704;2024-03-02T06:28:03;41;36;
77365;PMS5003;66430;50.182;11.704;2024-03-02T06:30:28;37;34;
77365;PMS5003;66430;50.182;11.704;2024-03-02T06:32:54;45;38;
77365;PMS5003;66430;50.182;11.704;2024-03-02T06:35:20;34;26;
77365;PMS5003;66430;50.182;11.704;2024-03-02T06:37:45;42;33;
77365;PMS5003;66430;50.182;11.704;2024-03-02T06:40:11;43;37;
77365;PMS5003;66430;50.182;11.704;2024-03-02T06:42:36;35;33;
77365;PMS5003;66430;50.182;11.704;2024-03-02T06:45:01;34;31;
77365;PMS5003;66430;50.182;11.704;2024-03-02T06:47:26;36;29;
77365;PMS5003;66430;50.182;11.704;2024-03-02T06:49:51;30;26;
77365;PMS5003;66430;50.182;11.704;2024-03-02T06:52:16;28;27;
77365;PMS5003;66430;50.182;11.704;2024-03-02T06:54:42;37;31;
77365;PMS5003;66430;50.182;11.704;2024-03-02T06:57:07;30;26;
77365;PMS5003;66430;50.182;11.704;2024-03-02T06:59:33;32;31;
77365;PMS5003;66430;50.182;11.704;2024-03-02T07:01:59;35;31;
77365;PMS5003;66430;50.182;11.704;2024-03-02T07:21:22;32;26;
77365;PMS5003;66430;50.182;11.704;2024-03-02T07:23:48;28;25;
77365;PMS5003;66430;50.182;11.704;2024-03-02T07:26:13;17;17;
77365;PMS5003;66430;50.182;11.704;2024-03-02T07:28:39;29;24;
77365;PMS5003;66430;50.182;11.704;2024-03-02T07:31:04;20;19;
77365;PMS5003;66430;50.182;11.704;2024-03-02T07:33:29;18;16;
77365;PMS5003;66430;50.182;11.704;2024-03-02T07:35:54;20;18;
77365;PMS5003;66430;50.182;11.704;2024-03-02T07:38:19;18;15;
77365;PMS5003;66430;50.182;11.704;2024-03-02T07:40:45;22;21;
77365;PMS5003;66430;50.182;11.704;2024-03-02T07:43:10;21;20;
77365;PMS5003;66430;50.182;11.704;2024-03-02T07:45:35;19;19;
77365;PMS5003;66430;50.182;11.704;2024-03-02T07:48:00;18;16;
77365;PMS5003;66430;50.182;11.704;2024-03-02T07:50:27;22;19;
77365;PMS5003;66430;50.182;11.704;2024-03-02T07:52:51;19;19;
77365;PMS5003;66430;50.182;11.704;2024-03-02T07:55:17;19;17;
77365;PMS5003;66430;50.182;11.704;2024-03-02T07:57:42;20;20;
77365;PMS5003;66430;50.182;11.704;2024-03-02T08:00:08;18;16;
77365;PMS5003;66430;50.182;11.704;2024-03-02T08:02:33;22;20;
77365;PMS5003;66430;50.182;11.704;2024-03-02T08:04:58;22;19;
77365;PMS5003;66430;50.182;11.704;2024-03-02T08:07:25;22;18;
77365;PMS5003;66430;50.182;11.704;2024-03-02T08:09:49;18;15;
77365;PMS5003;66430;50.182;11.704;2024-03-02T08:12:14;21;15;
77365;PMS5003;66430;50.182;11.704;2024-03-02T08:14:44;17;16;
77365;PMS5003;66430;50.182;11.704;2024-03-02T08:17:05;23;21;
77365;PMS5003;66430;50.182;11.704;2024-03-02T08:19:31;15;15;
77365;PMS5003;66430;50.182;11.704;2024-03-02T08:21:56;19;19;
77365;PMS5003;66430;50.182;11.704;2024-03-02T08:24:23;19;17;
77365;PMS5003;66430;50.182;11.704;2024-03-02T08:26:47;26;25;
77365;PMS5003;66430;50.182;11.704;2024-03-02T08:29:12;22;21;
77365;PMS5003;66430;50.182;11.704;2024-03-02T08:31:37;20;17;
77365;PMS5003;66430;50.182;11.704;2024-03-02T08:34:03;24;22;
77365;PMS5003;66430;50.182;11.704;2024-03-02T08:36:28;23;20;
77365;PMS5003;66430;50.182;11.704;2024-03-02T08:38:54;27;24;
77365;PMS5003;66430;50.182;11.704;2024-03-02T08:41:19;20;19;
77365;PMS5003;66430;50.182;11.704;2024-03-02T08:43:44;22;21;
77365;PMS5003;66430;50.182;11.704;2024-03-02T08:46:09;26;24;
77365;PMS5003;66430;50.182;11.704;2024-03-02T08:48:35;23;22;
77365;PMS5003;66430;50.182;11.704;2024-03-02T08:51:00;23;20;
77365;PMS5003;66430;50.182;11.704;2024-03-02T08:53:26;19;18;
77365;PMS5003;66430;50.182;11.704;2024-03-02T08:55:51;18;16;
77365;PMS5003;66430;50.182;11.704;2024-03-02T08:58:17;23;20;
77365;PMS5003;66430;50.182;11.704;2024-03-02T09:00:42;16;14;
77365;PMS5003;66430;50.182;11.704;2024-03-02T09:03:07;22;19;
77365;PMS5003;66430;50.182;11.704;2024-03-02T09:05:33;21;17;
77365;PMS5003;66430;50.182;11.704;2024-03-02T09:08:00;23;21;
77365;PMS5003;66430;50.182;11.704;2024-03-02T09:10:24;17;16;
77365;PMS5003;66430;50.182;11.704;2024-03-02T09:12:50;16;16;
77365;PMS5003;66430;50.182;11.704;2024-03-02T09:15:15;19;17;
77365;PMS5003;66430;50.182;11.704;2024-03-02T09:17:41;15;15;
77365;PMS5003;66430;50.182;11.704;2024-03-02T09:20:07;16;13;
77365;PMS5003;66430;50.182;11.704;2024-03-02T09:22:33;16;15;
77365;PMS5003;66430;50.182;11.704;2024-03-02T09:24:57;15;15;
77365;PMS5003;66430;50.182;11.704;2024-03-02T09:27:23;13;11;
77365;PMS5003;66430;50.182;11.704;2024-03-02T09:29:49;12;12;
77365;PMS5003;66430;50.182;11.704;2024-03-02T09:32:13;14;12;
77365;PMS5003;66430;50.182;11.704;2024-03-02T09:34:39;14;13;
77365;PMS5003;66430;50.182;11.704;2024-03-02T09:37:06;13;13;
77365;PMS5003;66430;50.182;11.704;2024-03-02T09:39:31;17;15;
77365;PMS5003;66430;50.182;11.704;2024-03-02T09:41:55;16;14;
77365;PMS5003;66430;50.182;11.704;2024-03-02T09:44:20;14;14;
77365;PMS5003;66430;50.182;11.704;2024-03-02T09:46:48;12;12;
77365;PMS5003;66430;50.182;11.704;2024-03-02T09:49:11;19;16;
77365;PMS5003;66430;50.182;11.704;2024-03-02T09:51:36;20;18;
77365;PMS5003;66430;50.182;11.704;2024-03-02T09:54:02;12;12;
77365;PMS5003;66430;50.182;11.704;2024-03-02T09:56:27;11;11;
77365;PMS5003;66430;50.182;11.704;2024-03-02T09:58:52;15;14;
77365;PMS5003;66430;50.182;11.704;2024-03-02T10:01:17;14;13;
77365;PMS5003;66430;50.182;11.704;2024-03-02T10:03:44;11;11;
77365;PMS5003;66430;50.182;11.704;2024-03-02T10:10:59;14;14;
77365;PMS5003;66430;50.182;11.704;2024-03-02T10:13:25;15;12;
77365;PMS5003;66430;50.182;11.704;2024-03-02T10:15:50;15;13;
77365;PMS5003;66430;50.182;11.704;2024-03-02T10:18:16;13;13;
77365;PMS5003;66430;50.182;11.704;2024-03-02T10:20:41;16;15;
77365;PMS5003;66430;50.182;11.704;2024-03-02T10:23:10;18;18;
77365;PMS5003;66430;50.182;11.704;2024-03-02T10:25:33;23;22;
77365;PMS5003;66430;50.182;11.704;2024-03-02T10:27:57;19;16;
77365;PMS5003;66430;50.182;11.704;2024-03-02T10:30:22;14;13;
77365;PMS5003;66430;50.182;11.704;2024-03-02T10:32:49;21;16;
77365;PMS5003;66430;50.182;11.704;2024-03-02T10:35:13;15;14;
77365;PMS5003;66430;50.182;11.704;2024-03-02T10:37:38;17;15;
77365;PMS5003;66430;50.182;11.704;2024-03-02T10:40:04;13;13;
77365;PMS5003;66430;50.182;11.704;2024-03-02T10:42:29;18;17;
77365;PMS5003;66430;50.182;11.704;2024-03-02T10:44:54;16;12;
77365;PMS5003;66430;50.182;11.704;2024-03-02T10:47:20;14;14;
77365;PMS5003;66430;50.182;11.704;2024-03-02T10:49:46;15;13;
77365;PMS5003;66430;50.182;11.704;2024-03-02T10:52:11;20;18;
77365;PMS5003;66430;50.182;11.704;2024-03-02T10:54:36;20;18;
77365;PMS5003;66430;50.182;11.704;2024-03-02T10:57:02;15;15;
77365;PMS5003;66430;50.182;11.704;2024-03-02T10:59:28;20;17;
77365;PMS5003;66430;50.182;11.704;2024-03-02T11:01:55;17;15;
77365;PMS5003;66430;50.182;11.704;2024-03-02T11:04:18;14;14;
77365;PMS5003;66430;50.182;11.704;2024-03-02T11:06:47;16;16;
77365;PMS5003;66430;50.182;11.704;2024-03-02T11:09:09;18;18;
77365;PMS5003;66430;50.182;11.704;2024-03-02T11:11:36;20;19;
77365;PMS5003;66430;50.182;11.704;2024-03-02T11:14:01;19;17;
77365;PMS5003;66430;50.182;11.704;2024-03-02T11:16:27;21;20;
77365;PMS5003;66430;50.182;11.704;2024-03-02T11:18:50;22;19;
77365;PMS5003;66430;50.182;11.704;2024-03-02T11:21:16;23;20;
77365;PMS5003;66430;50.182;11.704;2024-03-02T11:23:41;24;21;
77365;PMS5003;66430;50.182;11.704;2024-03-02T11:28:34;21;19;
77365;PMS5003;66430;50.182;11.704;2024-03-02T11:30:57;25;22;
77365;PMS5003;66430;50.182;11.704;2024-03-02T11:33:23;24;24;
77365;PMS5003;66430;50.182;11.704;2024-03-02T11:35:48;26;24;
77365;PMS5003;66430;50.182;11.704;2024-03-02T11:38:14;20;16;
77365;PMS5003;66430;50.182;11.704;2024-03-02T11:40:39;29;24;
77365;PMS5003;66430;50.182;11.704;2024-03-02T11:43:05;20;17;
77365;PMS5003;66430;50.182;11.704;2024-03-02T11:45:30;23;19;
77365;PMS5003;66430;50.182;11.704;2024-03-02T11:47:55;28;21;
77365;PMS5003;66430;50.182;11.704;2024-03-02T11:52:46;21;20;
77365;PMS5003;66430;50.182;11.704;2024-03-02T11:55:11;20;18;
77365;PMS5003;66430;50.182;11.704;2024-03-02T11:57:36;15;15;
77365;PMS5003;66430;50.182;11.704;2024-03-02T12:00:02;18;17;
77365;PMS5003;66430;50.182;11.704;2024-03-02T12:02:27;19;17;
77365;PMS5003;66430;50.182;11.704;2024-03-02T12:04:53;18;17;
77365;PMS5003;66430;50.182;11.704;2024-03-02T12:07:18;16;14;
77365;PMS5003;66430;50.182;11.704;2024-03-02T12:09:43;17;17;
77365;PMS5003;66430;50.182;11.704;2024-03-02T12:12:09;21;21;
77365;PMS5003;66430;50.182;11.704;2024-03-02T12:14:35;19;19;
77365;PMS5003;66430;50.182;11.704;2024-03-02T12:17:00;18;15;
77365;PMS5003;66430;50.182;11.704;2024-03-02T12:19:26;20;18;
77365;PMS5003;66430;50.182;11.704;2024-03-02T12:21:51;25;21;
77365;PMS5003;66430;50.182;11.704;2024-03-02T12:24:16;19;18;
77365;PMS5003;66430;50.182;11.704;2024-03-02T12:26:42;19;18;
77365;PMS5003;66430;50.182;11.704;2024-03-02T12:29:07;19;19;
77365;PMS5003;66430;50.182;11.704;2024-03-02T12:31:33;20;17;
77365;PMS5003;66430;50.182;11.704;2024-03-02T12:33:58;13;13;
77365;PMS5003;66430;50.182;11.704;2024-03-02T12:36:23;14;12;
77365;PMS5003;66430;50.182;11.704;2024-03-02T12:38:52;19;18;
77365;PMS5003;66430;50.182;11.704;2024-03-02T12:41:15;17;17;
77365;PMS5003;66430;50.182;11.704;2024-03-02T12:43:39;14;14;
77365;PMS5003;66430;50.182;11.704;2024-03-02T12:46:05;20;16;
77365;PMS5003;66430;50.182;11.704;2024-03-02T12:48:30;18;14;
77365;PMS5003;66430;50.182;11.704;2024-03-02T12:50:55;17;16;
77365;PMS5003;66430;50.182;11.704;2024-03-02T12:53:21;15;15;
77365;PMS5003;66430;50.182;11.704;2024-03-02T12:55:46;23;19;
77365;PMS5003;66430;50.182;11.704;2024-03-02T12:58:16;22;18;
77365;PMS5003;66430;50.182;11.704;2024-03-02T13:00:37;14;14;
77365;PMS5003;66430;50.182;11.704;2024-03-02T13:03:03;15;14;
77365;PMS5003;66430;50.182;11.704;2024-03-02T13:05:29;13;12;
77365;PMS5003;66430;50.182;11.704;2024-03-02T13:07:55;17;16;
77365;PMS5003;66430;50.182;11.704;2024-03-02T13:10:20;15;13;
77365;PMS5003;66430;50.182;11.704;2024-03-02T13:12:45;24;22;
77365;PMS5003;66430;50.182;11.704;2024-03-02T13:15:10;25;25;
77365;PMS5003;66430;50.182;11.704;2024-03-02T13:17:36;26;23;
77365;PMS5003;66430;50.182;11.704;2024-03-02T13:20:02;30;27;
77365;PMS5003;66430;50.182;11.704;2024-03-02T13:22:27;22;22;
77365;PMS5003;66430;50.182;11.704;2024-03-02T13:24:52;25;23;
77365;PMS5003;66430;50.182;11.704;2024-03-02T13:27:16;24;23;
77365;PMS5003;66430;50.182;11.704;2024-03-02T13:29:42;29;26;
77365;PMS5003;66430;50.182;11.704;2024-03-02T13:32:08;25;22;
77365;PMS5003;66430;50.182;11.704;2024-03-02T13:34:33;23;21;
77365;PMS5003;66430;50.182;11.704;2024-03-02T13:36:59;25;23;
77365;PMS5003;66430;50.182;11.704;2024-03-02T13:39:24;17;16;
77365;PMS5003;66430;50.182;11.704;2024-03-02T13:41:50;28;26;
77365;PMS5003;66430;50.182;11.704;2024-03-02T13:44:15;22;20;
77365;PMS5003;66430;50.182;11.704;2024-03-02T13:46:41;21;20;
77365;PMS5003;66430;50.182;11.704;2024-03-02T13:49:11;15;15;
77365;PMS5003;66430;50.182;11.704;2024-03-02T13:51:32;25;22;
77365;PMS5003;66430;50.182;11.704;2024-03-02T13:53:57;22;18;
77365;PMS5003;66430;50.182;11.704;2024-03-02T13:56:22;25;23;
77365;PMS5003;66430;50.182;11.704;2024-03-02T13:58:48;23;19;
77365;PMS5003;66430;50.182;11.704;2024-03-02T14:01:14;24;21;
77365;PMS5003;66430;50.182;11.704;2024-03-02T14:03:39;27;23;
77365;PMS5003;66430;50.182;11.704;2024-03-02T14:06:05;21;19;
77365;PMS5003;66430;50.182;11.704;2024-03-02T14:08:30;22;20;
77365;PMS5003;66430;50.182;11.704;2024-03-02T14:10:55;23;22;
77365;PMS5003;66430;50.182;11.704;2024-03-02T14:13:21;25;24;
77365;PMS5003;66430;50.182;11.704;2024-03-02T14:15:47;26;25;
77365;PMS5003;66430;50.182;11.704;2024-03-02T14:18:12;21;18;
77365;PMS5003;66430;50.182;11.704;2024-03-02T14:20:42;22;18;
77365;PMS5003;66430;50.182;11.704;2024-03-02T14:23:03;22;20;
77365;PMS5003;66430;50.182;11.704;2024-03-02T14:25:29;17;16;
77365;PMS5003;66430;50.182;11.704;2024-03-02T14:27:53;18;17;
77365;PMS5003;66430;50.182;11.704;2024-03-02T14:30:19;30;26;
77365;PMS5003;66430;50.182;11.704;2024-03-02T14:32:44;21;20;
77365;PMS5003;66430;50.182;11.704;2024-03-02T14:35:10;16;15;
77365;PMS5003;66430;50.182;11.704;2024-03-02T14:37:35;23;21;
77365;PMS5003;66430;50.182;11.704;2024-03-02T14:40:00;26;26;
77365;PMS5003;66430;50.182;11.704;2024-03-02T14:42:25;26;25;
77365;PMS5003;66430;50.182;11.704;2024-03-02T14:44:51;23;21;
77365;PMS5003;66430;50.182;11.704;2024-03-02T14:47:17;20;18;
77365;PMS5003;66430;50.182;11.704;2024-03-02T14:49:43;21;18;
77365;PMS5003;66430;50.182;11.704;2024-03-02T14:52:08;19;17;
77365;PMS5003;66430;50.182;11.704;2024-03-02T14:54:32;23;18;
77365;PMS5003;66430;50.182;11.704;2024-03-02T14:56:58;24;23;
77365;PMS5003;66430;50.182;11.704;2024-03-02T14:59:23;20;20;
77365;PMS5003;66430;50.182;11.704;2024-03-02T15:01:48;21;19;
77365;PMS5003;66430;50.182;11.704;2024-03-02T15:04:14;24;17;
77365;PMS5003;66430;50.182;11.704;2024-03-02T15:06:39;21;19;
77365;PMS5003;66430;50.182;11.704;2024-03-02T15:09:06;23;19;
77365;PMS5003;66430;50.182;11.704;2024-03-02T15:11:30;36;30;
77365;PMS5003;66430;50.182;11.704;2024-03-02T15:13:56;21;20;
77365;PMS5003;66430;50.182;11.704;2024-03-02T15:16:22;25;20;
77365;PMS5003;66430;50.182;11.704;2024-03-02T15:18:47;25;23;
77365;PMS5003;66430;50.182;11.704;2024-03-02T15:21:12;27;23;
77365;PMS5003;66430;50.182;11.704;2024-03-02T15:23:38;24;23;
77365;PMS5003;66430;50.182;11.704;2024-03-02T15:26:03;21;20;
77365;PMS5003;66430;50.182;11.704;2024-03-02T15:28:29;22;22;
77365;PMS5003;66430;50.182;11.704;2024-03-02T15:30:54;24;23;
77365;PMS5003;66430;50.182;11.704;2024-03-02T15:33:24;22;22;
77365;PMS5003;66430;50.182;11.704;2024-03-02T15:35:45;25;24;
77365;PMS5003;66430;50.182;11.704;2024-03-02T15:38:10;21;18;
77365;PMS5003;66430;50.182;11.704;2024-03-02T15:40:36;19;19;
77365;PMS5003;66430;50.182;11.704;2024-03-02T15:43:01;23;21;
77365;PMS5003;66430;50.182;11.704;2024-03-02T15:45:27;24;22;
77365;PMS5003;66430;50.182;11.704;2024-03-02T15:47:52;20;19;
77365;PMS5003;66430;50.182;11.704;2024-03-02T15:50:18;22;20;
77365;PMS5003;66430;50.182;11.704;2024-03-02T15:52:43;26;22;
77365;PMS5003;66430;50.182;11.704;2024-03-02T15:55:09;24;20;
77365;PMS5003;66430;50.182;11.704;2024-03-02T15:57:34;27;25;
77365;PMS5003;66430;50.182;11.704;2024-03-02T15:59:59;26;25;
77365;PMS5003;66430;50.182;11.704;2024-03-02T16:02:25;24;24;
77365;PMS5003;66430;50.182;11.704;2024-03-02T16:04:50;25;20;
77365;PMS5003;66430;50.182;11.704;2024-03-02T16:07:16;21;20;
77365;PMS5003;66430;50.182;11.704;2024-03-02T16:09:41;24;24;
77365;PMS5003;66430;50.182;11.704;2024-03-02T16:12:07;19;18;
77365;PMS5003;66430;50.182;11.704;2024-03-02T16:14:32;20;19;
77365;PMS5003;66430;50.182;11.704;2024-03-02T16:16:58;19;17;